Valhalla, New York
Current Conditions -  °F | °C
As of 11:56 PM on Wednesday 17 Dec 2014 (Local Time) from KHPN Reporting Station
Broken Clouds Broken Clouds  
Wind Chill: 33°   Ceiling: 3600
Heat Index: 40°   Visibility: 10mi
Dew Point: 29°   Wind: 13mph
Humidity: 65%   Direction: 300°WNW
Pressure: 29.84"   Gusts: 24mph
Location:  41.08°N, 73.77°W
Report Text: KHPN 180456Z 30011G21KT 10SM BKN036 04/M02 A2984 RMK AO2 SLP110 T00441017 401110044
Loading
Personal Weather Stations






























Interactive Weather Map New forecast layout! Learn more

10-Day Weather Forecast

Advertisements
Track Severe Weather on mobile